createdAt,value
2022-11-28T00:03:24.947Z,10.01
2022-11-28T00:07:27.819Z,10.07
2022-11-28T00:11:28.068Z,10.05
2022-11-28T00:15:28.147Z,9.67
2022-11-28T00:19:29.162Z,9.78
2022-11-28T00:23:33.261Z,9.88
2022-11-28T00:27:33.299Z,9.99
2022-11-28T00:31:36.441Z,9.92
2022-11-28T00:35:36.549Z,9.99
2022-11-28T00:39:39.225Z,10.00
2022-11-28T00:43:40.435Z,9.90
2022-11-28T00:47:40.836Z,10.11
2022-11-28T00:51:41.330Z,10.05
2022-11-28T00:55:44.820Z,10.15
2022-11-28T00:59:44.905Z,10.28
2022-11-28T01:03:48.365Z,10.13
2022-11-28T01:07:48.471Z,10.10
2022-11-28T01:11:55.248Z,10.30
2022-11-28T01:15:55.460Z,10.38
2022-11-28T01:19:55.682Z,10.27
2022-11-28T01:23:56.001Z,10.42
2022-11-28T01:27:58.762Z,10.55
2022-11-28T01:31:59.069Z,10.71
2022-11-28T01:36:00.852Z,10.63
2022-11-28T01:40:00.910Z,10.46
2022-11-28T01:44:12.019Z,10.62
2022-11-28T01:48:18.605Z,10.72
2022-11-28T01:52:23.210Z,10.49
2022-11-28T01:56:29.567Z,10.55
2022-11-28T02:00:34.775Z,10.20
2022-11-28T02:04:37.092Z,10.13
2022-11-28T02:08:39.886Z,10.03
2022-11-28T02:13:05.835Z,10.24
2022-11-28T02:17:23.596Z,10.29
2022-11-28T02:21:52.192Z,10.33
2022-11-28T02:26:23.789Z,10.29
2022-11-28T02:30:28.957Z,10.05
2022-11-28T02:34:47.143Z,10.13
2022-11-28T02:39:07.374Z,10.17
2022-11-28T02:43:17.776Z,9.83
2022-11-28T02:47:28.652Z,10.11
2022-11-28T02:51:40.250Z,9.90
2022-11-28T02:55:43.489Z,10.11
2022-11-28T02:59:53.334Z,9.94
2022-11-28T03:04:27.801Z,9.66
2022-11-28T03:08:48.483Z,9.96
2022-11-28T03:13:00.036Z,9.67
2022-11-28T03:17:16.111Z,9.78
2022-11-28T03:21:28.724Z,9.94
2022-11-28T03:25:40.481Z,10.14
2022-11-28T03:29:46.058Z,10.28
2022-11-28T03:33:51.926Z,10.07
2022-11-28T03:37:57.719Z,10.14
2022-11-28T03:42:07.737Z,9.84
2022-11-28T03:46:14.320Z,9.95
2022-11-28T03:50:21.298Z,9.80
2022-11-28T03:54:31.223Z,9.83
2022-11-28T03:58:40.642Z,9.82
2022-11-28T04:02:51.270Z,9.80
2022-11-28T04:07:00.445Z,9.74
2022-11-28T04:11:11.744Z,9.82
2022-11-28T04:15:22.378Z,9.83
2022-11-28T04:19:33.727Z,9.60
2022-11-28T04:23:38.262Z,9.55
2022-11-28T04:27:43.132Z,9.36
2022-11-28T04:31:49.403Z,9.21
2022-11-28T04:35:54.443Z,9.29
2022-11-28T04:39:59.387Z,9.31
2022-11-28T04:44:07.792Z,9.37
2022-11-28T04:48:10.771Z,9.54
2022-11-28T04:52:20.659Z,9.28
2022-11-28T04:56:27.556Z,9.63
2022-11-28T05:00:29.909Z,9.54
2022-11-28T05:04:33.169Z,9.44
2022-11-28T05:08:33.397Z,9.26
2022-11-28T05:12:33.425Z,9.19
2022-11-28T05:16:33.766Z,9.42
2022-11-28T05:20:36.830Z,9.30
2022-11-28T05:24:37.266Z,9.24
2022-11-28T05:28:37.601Z,9.43
2022-11-28T05:32:37.705Z,9.14
2022-11-28T05:36:40.484Z,9.32
2022-11-28T05:40:44.242Z,9.34
2022-11-28T05:44:44.454Z,8.95
2022-11-28T05:48:44.589Z,9.27
2022-11-28T05:52:47.291Z,8.99
2022-11-28T05:56:47.838Z,8.93
2022-11-28T06:00:47.871Z,8.88
2022-11-28T06:04:48.052Z,8.96
2022-11-28T06:08:53.534Z,9.37
2022-11-28T06:12:53.580Z,9.08
2022-11-28T06:16:53.905Z,9.10
2022-11-28T06:20:54.401Z,9.13
2022-11-28T06:24:57.048Z,9.02
2022-11-28T06:28:58.306Z,8.93
2022-11-28T06:32:58.342Z,8.79
2022-11-28T06:36:58.487Z,8.48
2022-11-28T06:41:06.328Z,8.98
2022-11-28T06:45:07.793Z,8.93
2022-11-28T06:49:07.904Z,9.37
2022-11-28T06:53:07.995Z,9.54
2022-11-28T06:57:10.755Z,9.42
2022-11-28T07:01:14.196Z,9.37
2022-11-28T07:05:16.594Z,9.26
2022-11-28T07:09:16.885Z,9.23
2022-11-28T07:13:19.875Z,9.29
2022-11-28T07:17:19.994Z,9.07
2022-11-28T07:21:21.031Z,9.16
2022-11-28T07:25:21.384Z,9.13
2022-11-28T07:29:27.508Z,9.25
2022-11-28T07:33:27.706Z,9.53
2022-11-28T07:37:27.931Z,9.27
2022-11-28T07:41:29.359Z,9.52
2022-11-28T07:45:58.902Z,9.53
2022-11-28T07:49:56.157Z,9.73
2022-11-28T07:53:56.654Z,9.89
2022-11-28T07:57:56.951Z,9.84
2022-11-28T08:01:59.771Z,9.87
2022-11-28T08:06:04.356Z,9.89
2022-11-28T08:10:04.856Z,9.69
2022-11-28T08:14:06.911Z,10.17
2022-11-28T08:18:13.087Z,10.06
2022-11-28T08:22:13.210Z,10.10
2022-11-28T08:26:16.632Z,10.34
2022-11-28T08:30:17.879Z,10.54
2022-11-28T08:34:20.687Z,10.55
2022-11-28T08:38:21.049Z,10.51
2022-11-28T08:42:21.145Z,10.53
2022-11-28T08:46:24.448Z,10.47
2022-11-28T08:50:30.245Z,10.25
2022-11-28T08:54:30.333Z,10.05
2022-11-28T08:58:30.427Z,10.12
2022-11-28T09:02:30.533Z,10.27
2022-11-28T09:06:33.239Z,10.24
2022-11-28T09:10:33.349Z,10.23
2022-11-28T09:14:33.561Z,10.29
2022-11-28T09:18:34.481Z,10.41
2022-11-28T09:22:37.779Z,10.93
2022-11-28T09:26:38.066Z,10.95
2022-11-28T09:30:38.749Z,10.59
2022-11-28T09:34:39.220Z,10.79
2022-11-28T09:38:43.364Z,10.96
2022-11-28T09:42:47.028Z,11.17
2022-11-28T09:46:51.675Z,11.24
2022-11-28T09:50:59.090Z,10.92
2022-11-28T09:55:17.860Z,11.46
2022-11-28T09:59:27.347Z,11.97
2022-11-28T10:03:47.221Z,12.15
2022-11-28T10:08:06.858Z,12.13
2022-11-28T10:12:35.039Z,11.85
2022-11-28T10:16:50.205Z,12.02
2022-11-28T10:20:56.499Z,11.90
2022-11-28T10:25:03.393Z,11.91
2022-11-28T10:29:22.107Z,11.65
2022-11-28T10:33:31.602Z,12.14
2022-11-28T10:37:35.216Z,12.14
2022-11-28T10:41:43.143Z,11.67
2022-11-28T10:45:57.958Z,11.62
2022-11-28T10:50:07.015Z,11.99
2022-11-28T10:54:26.170Z,12.47
2022-11-28T10:58:35.506Z,11.75
2022-11-28T11:02:45.705Z,12.01
2022-11-28T11:07:06.921Z,12.15
2022-11-28T11:11:14.553Z,12.07
2022-11-28T11:15:26.529Z,12.49
2022-11-28T11:19:34.140Z,11.87
2022-11-28T11:23:38.255Z,11.78
2022-11-28T11:27:41.392Z,11.57
2022-11-28T11:31:52.515Z,11.75
2022-11-28T11:35:55.638Z,11.46
2022-11-28T11:39:56.234Z,11.61
2022-11-28T11:43:56.373Z,12.18
2022-11-28T11:47:56.920Z,12.20
2022-11-28T11:52:04.281Z,12.59
2022-11-28T11:56:06.957Z,12.51
2022-11-28T12:00:17.962Z,12.14
2022-11-28T12:04:45.462Z,11.84
2022-11-28T12:08:55.081Z,11.77
2022-11-28T12:12:56.312Z,11.82
2022-11-28T12:22:14.584Z,12.58
2022-11-28T12:26:31.486Z,12.59
2022-11-28T12:30:52.940Z,12.69
2022-11-28T12:35:14.132Z,12.82
2022-11-28T12:39:42.091Z,12.32
2022-11-28T12:44:05.925Z,12.95
2022-11-28T12:48:28.888Z,12.93
2022-11-28T12:52:48.743Z,12.95
2022-11-28T12:57:01.470Z,12.62
2022-11-28T13:01:30.267Z,12.35
2022-11-28T13:06:02.013Z,12.63
2022-11-28T13:10:16.557Z,12.81
2022-11-28T13:14:32.625Z,12.61
2022-11-28T13:18:43.976Z,12.98
2022-11-28T13:23:02.355Z,13.07
2022-11-28T13:27:14.860Z,12.96
2022-11-28T13:31:25.937Z,13.09
2022-11-28T13:35:31.921Z,12.83
2022-11-28T13:39:42.285Z,12.58
2022-11-28T13:43:53.509Z,12.65
2022-11-28T13:47:55.712Z,12.73
2022-11-28T13:52:45.476Z,12.56
2022-11-28T13:56:47.864Z,12.41
2022-11-28T14:01:09.774Z,12.43
2022-11-28T14:05:31.159Z,12.61
2022-11-28T14:09:53.471Z,11.96
2022-11-28T14:14:27.512Z,11.92
2022-11-28T14:18:56.808Z,12.14
2022-11-28T14:23:21.892Z,11.92
2022-11-28T14:27:30.921Z,12.23
2022-11-28T14:31:37.361Z,12.04
2022-11-28T14:36:25.099Z,12.09
2022-11-28T14:41:11.887Z,12.14
2022-11-28T14:45:52.626Z,12.02
2022-11-28T14:50:28.096Z,12.15
2022-11-28T14:54:32.474Z,12.09
2022-11-28T14:58:32.655Z,11.99
2022-11-28T15:03:15.191Z,11.82
2022-11-28T15:07:31.653Z,11.87
2022-11-28T15:11:58.881Z,11.73
2022-11-28T15:16:00.207Z,11.74
2022-11-28T15:20:10.669Z,11.66
2022-11-28T15:24:28.950Z,11.68
2022-11-28T15:28:32.543Z,11.46
2022-11-28T15:32:34.726Z,11.11
2022-11-28T15:36:46.486Z,11.03
2022-11-28T15:40:55.269Z,10.15
2022-11-28T15:45:14.453Z,10.28
2022-11-28T15:49:32.067Z,10.88
2022-11-28T15:53:35.815Z,10.85
2022-11-28T15:57:36.548Z,10.90
2022-11-28T16:01:37.485Z,10.93
2022-11-28T16:05:37.762Z,11.01
2022-11-28T16:09:40.720Z,10.77
2022-11-28T16:13:43.947Z,10.70
2022-11-28T16:17:44.745Z,10.53
2022-11-28T16:21:56.790Z,10.72
2022-11-28T16:26:09.391Z,10.77
2022-11-28T16:30:39.108Z,10.42
2022-11-28T16:34:50.874Z,10.53
2022-11-28T16:38:54.549Z,10.64
2022-11-28T16:43:02.979Z,10.79
2022-11-28T16:47:04.410Z,10.64
2022-11-28T16:51:41.653Z,10.75
2022-11-28T16:55:47.393Z,10.38
2022-11-28T16:59:52.090Z,10.62
2022-11-28T17:03:55.559Z,10.67
2022-11-28T17:07:56.738Z,10.47
2022-11-28T17:12:02.127Z,10.41
2022-11-28T17:16:04.775Z,10.54
2022-11-28T17:20:05.560Z,10.49
2022-11-28T17:24:06.359Z,10.16
2022-11-28T17:28:06.779Z,10.25
2022-11-28T17:32:12.283Z,10.34
2022-11-28T17:36:14.450Z,10.27
2022-11-28T17:40:27.560Z,10.20
2022-11-28T17:44:31.856Z,10.25
2022-11-28T17:48:35.700Z,10.21
2022-11-28T17:52:35.807Z,10.32
2022-11-28T17:56:36.119Z,10.17
2022-11-28T18:00:36.383Z,10.24
2022-11-28T18:04:40.471Z,10.29
2022-11-28T18:08:41.237Z,10.28
2022-11-28T18:12:41.516Z,10.29
2022-11-28T18:16:43.995Z,10.28
2022-11-28T18:20:47.132Z,10.31
2022-11-28T18:24:47.804Z,10.39
2022-11-28T18:28:48.180Z,10.16
2022-11-28T18:32:48.674Z,10.35
2022-11-28T18:36:58.432Z,10.42
2022-11-28T18:41:07.958Z,10.61
2022-11-28T18:45:09.876Z,10.57
2022-11-28T18:49:10.712Z,10.74
2022-11-28T18:53:13.647Z,10.78
2022-11-28T18:57:14.536Z,10.60
2022-11-28T19:01:17.377Z,10.67
2022-11-28T19:05:17.812Z,10.51
2022-11-28T19:09:22.314Z,10.35
2022-11-28T19:13:22.498Z,10.36
2022-11-28T19:17:22.642Z,10.18
2022-11-28T19:21:28.346Z,10.18
2022-11-28T19:25:32.550Z,10.33
2022-11-28T19:29:32.711Z,10.25
2022-11-28T19:33:32.926Z,10.50
2022-11-28T19:37:33.611Z,10.26
2022-11-28T19:41:37.084Z,10.25
2022-11-28T19:45:37.218Z,10.27
2022-11-28T19:49:38.269Z,10.25
2022-11-28T19:53:40.955Z,9.96
2022-11-28T19:57:43.885Z,10.30
2022-11-28T20:01:44.516Z,10.14
2022-11-28T20:05:46.237Z,10.35
2022-11-28T20:09:47.015Z,10.47
2022-11-28T20:13:51.750Z,10.38
2022-11-28T20:17:52.365Z,10.19
2022-11-28T20:21:52.818Z,9.99
2022-11-28T20:25:53.646Z,10.27
2022-11-28T20:29:56.435Z,10.36
2022-11-28T20:33:57.481Z,10.40
2022-11-28T20:37:57.814Z,10.37
2022-11-28T20:41:57.949Z,10.12
2022-11-28T20:46:05.881Z,10.26
2022-11-28T20:50:06.556Z,10.28
2022-11-28T20:54:08.860Z,10.49
2022-11-28T20:58:09.006Z,10.33
2022-11-28T21:02:13.992Z,10.08
2022-11-28T21:06:14.623Z,10.33
2022-11-28T21:10:14.830Z,10.27
2022-11-28T21:14:15.274Z,10.38
2022-11-28T21:18:18.932Z,10.23
2022-11-28T21:22:19.041Z,10.00
2022-11-28T21:26:28.798Z,10.19
2022-11-28T21:30:30.447Z,10.11
2022-11-28T21:34:33.904Z,10.29
2022-11-28T21:38:34.552Z,10.26
2022-11-28T21:42:35.181Z,10.38
2022-11-28T21:46:35.330Z,10.55
2022-11-28T21:50:38.115Z,10.55
2022-11-28T21:54:38.148Z,10.64
2022-11-28T21:58:38.598Z,10.51
2022-11-28T22:02:38.773Z,10.56
2022-11-28T22:06:41.918Z,10.41
2022-11-28T22:10:42.012Z,10.41
2022-11-28T22:14:42.223Z,10.22
2022-11-28T22:18:42.341Z,10.25
2022-11-28T22:22:45.023Z,10.22
2022-11-28T22:26:46.214Z,10.07
2022-11-28T22:30:46.576Z,10.13
2022-11-28T22:34:47.266Z,10.10
2022-11-28T22:38:52.976Z,10.19
2022-11-28T22:42:59.747Z,10.13
2022-11-28T22:47:00.052Z,10.29
2022-11-28T22:51:00.464Z,10.36
2022-11-28T22:55:03.247Z,10.37
2022-11-28T22:59:05.113Z,10.47
2022-11-28T23:03:06.429Z,10.40
2022-11-28T23:07:06.887Z,10.47
2022-11-28T23:11:15.687Z,10.28
2022-11-28T23:15:16.503Z,10.55
2022-11-28T23:19:20.007Z,10.42
2022-11-28T23:23:20.101Z,10.43
2022-11-28T23:27:22.806Z,10.47
2022-11-28T23:31:26.853Z,10.58
2022-11-28T23:35:28.005Z,10.63
2022-11-28T23:39:28.798Z,10.50
2022-11-28T23:43:39.372Z,10.56
2022-11-28T23:47:39.470Z,10.57
2022-11-28T23:51:40.136Z,10.71
2022-11-28T23:55:40.307Z,10.51
2022-11-28T23:59:42.965Z,10.56
